createdAt,value
2018-06-03T00:00:15.315Z,0
2018-06-03T00:01:25.337Z,0
2018-06-03T00:02:34.830Z,0
2018-06-03T00:03:44.910Z,0
2018-06-03T00:04:54.656Z,0
2018-06-03T00:06:04.408Z,0
2018-06-03T00:07:14.161Z,0
2018-06-03T00:08:23.913Z,0
2018-06-03T00:09:33.658Z,0
2018-06-03T00:10:43.673Z,0
2018-06-03T00:11:53.700Z,0
2018-06-03T00:13:03.717Z,0
2018-06-03T00:14:13.480Z,0
2018-06-03T00:15:22.967Z,0
2018-06-03T00:16:32.453Z,0
2018-06-03T00:17:42.212Z,0
2018-06-03T00:18:51.961Z,0
2018-06-03T00:20:01.721Z,0
2018-06-03T00:21:11.491Z,0
2018-06-03T00:22:21.515Z,0
2018-06-03T00:23:31.548Z,0
2018-06-03T00:24:41.566Z,0
2018-06-03T00:25:51.582Z,0
2018-06-03T00:27:01.608Z,0
2018-06-03T00:28:11.628Z,0
2018-06-03T00:29:21.111Z,0
2018-06-03T00:30:31.137Z,0
2018-06-03T00:31:41.153Z,4
2018-06-03T00:32:51.187Z,4
2018-06-03T00:34:01.210Z,4
2018-06-03T00:35:10.995Z,4
2018-06-03T00:36:20.748Z,4
2018-06-03T00:37:30.781Z,4
2018-06-03T00:38:40.262Z,4
2018-06-03T00:39:49.743Z,4
2018-06-03T00:40:59.490Z,0
2018-06-03T00:42:08.711Z,0
2018-06-03T00:43:18.460Z,0
2018-06-03T00:44:28.206Z,4
2018-06-03T00:45:37.956Z,4
2018-06-03T00:46:48.075Z,4
2018-06-03T00:47:57.289Z,4
2018-06-03T00:49:06.780Z,4
2018-06-03T00:50:16.529Z,4
2018-06-03T00:51:26.278Z,4
2018-06-03T00:52:36.026Z,8
2018-06-03T00:53:46.049Z,4
2018-06-03T00:54:55.850Z,4
2018-06-03T00:56:05.593Z,4
2018-06-03T00:57:15.340Z,8
2018-06-03T00:58:25.366Z,8
2018-06-03T00:59:35.116Z,8
2018-06-03T01:00:44.868Z,4
2018-06-03T01:01:54.898Z,8
2018-06-03T01:03:04.111Z,8
2018-06-03T01:04:14.134Z,12
2018-06-03T01:05:23.624Z,8
2018-06-03T01:06:32.845Z,8
2018-06-03T01:07:42.866Z,12
2018-06-03T01:08:52.356Z,12
2018-06-03T01:10:02.109Z,12
2018-06-03T01:11:11.865Z,12
2018-06-03T01:12:21.882Z,12
2018-06-03T01:13:31.899Z,16
2018-06-03T01:14:41.386Z,16
2018-06-03T01:15:50.872Z,16
2018-06-03T01:17:00.630Z,20
2018-06-03T01:18:10.379Z,20
2018-06-03T01:19:20.404Z,24
2018-06-03T01:20:30.163Z,24
2018-06-03T01:21:39.703Z,24
2018-06-03T01:22:49.721Z,24
2018-06-03T01:23:59.478Z,28
2018-06-03T01:25:09.499Z,32
2018-06-03T01:26:19.538Z,32
2018-06-03T01:27:29.561Z,36
2018-06-03T01:28:39.586Z,36
2018-06-03T01:29:49.605Z,40
2018-06-03T01:30:59.364Z,44
2018-06-03T01:32:09.110Z,48
2018-06-03T01:33:18.867Z,48
2018-06-03T01:34:28.615Z,52
2018-06-03T01:35:38.361Z,56
2018-06-03T01:36:48.392Z,60
2018-06-03T01:37:58.410Z,60
2018-06-03T01:39:08.161Z,68
2018-06-03T01:40:18.179Z,72
2018-06-03T01:41:28.194Z,76
2018-06-03T01:42:38.217Z,80
2018-06-03T01:43:47.968Z,88
2018-06-03T01:44:58.032Z,92
2018-06-03T01:46:07.515Z,96
2018-06-03T01:47:17.534Z,104
2018-06-03T01:48:27.559Z,116
2018-06-03T01:49:37.587Z,120
2018-06-03T01:50:47.600Z,128
2018-06-03T01:51:57.355Z,136
2018-06-03T01:53:07.372Z,144
2018-06-03T01:54:16.852Z,156
2018-06-03T01:55:26.910Z,168
2018-06-03T01:56:36.946Z,176
2018-06-03T01:57:46.976Z,188
2018-06-03T01:58:56.994Z,196
2018-06-03T02:00:07.014Z,204
2018-06-03T02:01:16.763Z,216
2018-06-03T02:02:29.600Z,232
2018-06-03T02:03:39.634Z,240
2018-06-03T02:04:48.845Z,256
2018-06-03T02:05:58.592Z,268
2018-06-03T02:07:08.612Z,284
2018-06-03T02:08:18.626Z,300
2018-06-03T02:09:28.382Z,308
2018-06-03T02:10:38.400Z,324
2018-06-03T02:11:48.425Z,340
2018-06-03T02:12:58.445Z,352
2018-06-03T02:14:08.198Z,364
2018-06-03T02:15:18.220Z,384
2018-06-03T02:16:28.235Z,396
2018-06-03T02:17:37.722Z,408
2018-06-03T02:18:47.745Z,428
2018-06-03T02:19:57.496Z,444
2018-06-03T02:21:07.274Z,460
2018-06-03T02:22:17.023Z,476
2018-06-03T02:23:27.039Z,492
2018-06-03T02:24:36.526Z,508
2018-06-03T02:25:46.593Z,528
2018-06-03T02:26:56.337Z,544
2018-06-03T02:28:05.818Z,564
2018-06-03T02:29:15.571Z,584
2018-06-03T02:30:25.653Z,600
2018-06-03T02:31:36.029Z,620
2018-06-03T02:32:46.064Z,640
2018-06-03T02:33:55.819Z,660
2018-06-03T02:35:05.591Z,684
2018-06-03T02:36:15.072Z,704
2018-06-03T02:37:24.944Z,724
2018-06-03T02:38:34.981Z,744
2018-06-03T02:39:45.025Z,768
2018-06-03T02:40:55.064Z,788
2018-06-03T02:42:04.818Z,812
2018-06-03T02:43:14.461Z,836
2018-06-03T02:44:24.497Z,856
2018-06-03T02:45:34.269Z,876
2018-06-03T02:46:44.029Z,900
2018-06-03T02:47:53.783Z,920
2018-06-03T02:49:03.536Z,940
2018-06-03T02:50:13.029Z,960
2018-06-03T02:51:23.058Z,972
2018-06-03T02:52:33.107Z,992
2018-06-03T02:53:43.149Z,1008
2018-06-03T02:54:52.901Z,1036
2018-06-03T02:56:02.137Z,1052
2018-06-03T02:57:11.889Z,1068
2018-06-03T02:58:21.645Z,1088
2018-06-03T02:59:31.424Z,1116
2018-06-03T03:03:27.624Z,1188
2018-06-03T03:04:37.388Z,1220
2018-06-03T03:05:47.142Z,1248
2018-06-03T03:06:57.166Z,1272
2018-06-03T03:08:07.213Z,1292
2018-06-03T03:09:16.961Z,1316
2018-06-03T03:10:26.984Z,1344
2018-06-03T03:11:36.753Z,1376
2018-06-03T03:12:46.503Z,1416
2018-06-03T03:13:56.261Z,1460
2018-06-03T03:15:05.749Z,1528
2018-06-03T03:16:15.507Z,1592
2018-06-03T03:17:25.260Z,1652
2018-06-03T03:18:35.274Z,1704
2018-06-03T03:19:45.296Z,1720
2018-06-03T03:20:55.092Z,1744
2018-06-03T03:22:04.842Z,1756
2018-06-03T03:23:14.599Z,1740
2018-06-03T03:24:24.633Z,1736
2018-06-03T03:25:34.388Z,1720
2018-06-03T03:26:44.135Z,1728
2018-06-03T03:27:53.663Z,1748
2018-06-03T03:29:03.418Z,1784
2018-06-03T03:30:13.172Z,1820
2018-06-03T03:31:22.935Z,1860
2018-06-03T03:32:32.949Z,1892
2018-06-03T03:33:42.965Z,1936
2018-06-03T03:34:52.715Z,1972
2018-06-03T03:36:02.732Z,2004
2018-06-03T03:37:12.483Z,1988
2018-06-03T03:38:22.518Z,1948
2018-06-03T03:39:32.536Z,1952
2018-06-03T03:40:42.546Z,1968
2018-06-03T03:41:52.292Z,1988
2018-06-03T03:43:02.045Z,2008
2018-06-03T03:44:11.792Z,2024
2018-06-03T03:45:21.807Z,2044
2018-06-03T03:46:31.827Z,2060
2018-06-03T03:47:41.846Z,2080
2018-06-03T03:48:51.859Z,2104
2018-06-03T03:50:01.872Z,2120
2018-06-03T03:51:11.890Z,2136
2018-06-03T03:52:21.910Z,2160
2018-06-03T03:53:31.389Z,2168
2018-06-03T03:54:41.413Z,2188
2018-06-03T03:55:50.898Z,2204
2018-06-03T03:57:00.645Z,2220
2018-06-03T03:58:10.397Z,2228
2018-06-03T03:59:20.148Z,2244
2018-06-03T04:00:29.892Z,2260
2018-06-03T04:01:39.645Z,2272
2018-06-03T04:02:49.393Z,2288
2018-06-03T04:03:59.142Z,2304
2018-06-03T04:05:09.161Z,2320
2018-06-03T04:06:19.181Z,2336
2018-06-03T04:07:29.299Z,2348
2018-06-03T04:08:39.326Z,2356
2018-06-03T04:09:49.344Z,2368
2018-06-03T04:10:59.358Z,2384
2018-06-03T04:12:09.132Z,2400
2018-06-03T04:13:19.133Z,2420
2018-06-03T04:14:28.315Z,2424
2018-06-03T04:15:38.067Z,2440
2018-06-03T04:16:47.551Z,2456
2018-06-03T04:17:57.573Z,2468
2018-06-03T04:19:07.330Z,2476
2018-06-03T04:20:17.080Z,2484
2018-06-03T04:21:26.828Z,2500
2018-06-03T04:22:36.583Z,2508
2018-06-03T04:23:46.327Z,2520
2018-06-03T04:24:56.346Z,2532
2018-06-03T04:26:06.366Z,2544
2018-06-03T04:27:16.385Z,2556
2018-06-03T04:28:26.448Z,2564
2018-06-03T04:29:36.193Z,2580
2018-06-03T04:30:45.941Z,2592
2018-06-03T04:31:55.689Z,2604
2018-06-03T04:33:05.720Z,2612
2018-06-03T04:34:15.735Z,2624
2018-06-03T04:35:25.755Z,2636
2018-06-03T04:36:35.819Z,2648
2018-06-03T04:37:45.568Z,2652
2018-06-03T04:38:55.583Z,2664
2018-06-03T04:40:05.339Z,2668
2018-06-03T04:41:14.877Z,2676
2018-06-03T04:42:24.625Z,2684
2018-06-03T04:43:34.371Z,2696
2018-06-03T04:44:44.121Z,2704
2018-06-03T04:45:54.137Z,2708
2018-06-03T04:47:04.158Z,2716
2018-06-03T04:48:13.918Z,2724
2018-06-03T04:49:23.662Z,2736
2018-06-03T04:50:33.139Z,2740
2018-06-03T04:51:42.629Z,2752
2018-06-03T04:52:52.383Z,2764
2018-06-03T04:54:02.138Z,2772
2018-06-03T04:55:12.284Z,2780
2018-06-03T04:56:22.037Z,2788
2018-06-03T04:57:31.789Z,2796
2018-06-03T04:58:41.536Z,2804
2018-06-03T04:59:51.282Z,2812
2018-06-03T05:01:00.763Z,2820
2018-06-03T05:02:10.511Z,2828
2018-06-03T05:03:19.988Z,2832
2018-06-03T05:04:30.004Z,2840
2018-06-03T05:05:39.759Z,2848
2018-06-03T05:06:49.778Z,2856
2018-06-03T05:07:59.800Z,2864
2018-06-03T05:09:09.550Z,2872
2018-06-03T05:10:19.562Z,2880
2018-06-03T05:11:29.579Z,2884
2018-06-03T05:12:39.328Z,2888
2018-06-03T05:13:49.083Z,2892
2018-06-03T05:14:58.565Z,2896
2018-06-03T05:16:08.583Z,2904
2018-06-03T05:17:18.337Z,2912
2018-06-03T05:18:28.381Z,2916
2018-06-03T05:19:38.398Z,2920
2018-06-03T05:20:48.145Z,2928
2018-06-03T05:21:57.897Z,2928
2018-06-03T05:23:07.117Z,2932
2018-06-03T05:24:17.123Z,2936
2018-06-03T05:25:26.870Z,2940
2018-06-03T05:26:36.893Z,2948
2018-06-03T05:27:46.915Z,2952
2018-06-03T05:28:56.662Z,2960
2018-06-03T05:30:06.412Z,2968
2018-06-03T05:31:16.166Z,2968
2018-06-03T05:32:25.648Z,2972
2018-06-03T05:33:35.395Z,2976
2018-06-03T05:34:45.409Z,2980
2018-06-03T05:35:55.159Z,2984
2018-06-03T05:37:04.637Z,2988
2018-06-03T05:38:14.119Z,2992
2018-06-03T05:39:24.142Z,2996
2018-06-03T05:40:34.166Z,3000
2018-06-03T05:41:44.196Z,3000
2018-06-03T05:42:53.942Z,3008
2018-06-03T05:44:03.689Z,3012
2018-06-03T05:45:13.438Z,3012
2018-06-03T05:46:23.460Z,3020
2018-06-03T05:47:33.470Z,3024
2018-06-03T05:48:43.483Z,3024
2018-06-03T05:49:52.966Z,3028
2018-06-03T05:51:02.708Z,3032
2018-06-03T05:52:12.453Z,3036
2018-06-03T05:53:21.934Z,3036
2018-06-03T05:54:31.959Z,3044
2018-06-03T05:55:41.985Z,3048
2018-06-03T05:56:52.058Z,3052
2018-06-03T05:58:02.079Z,3056
2018-06-03T05:59:11.829Z,3060
2018-06-03T06:00:21.840Z,3068
2018-06-03T06:01:31.335Z,3068
2018-06-03T06:02:41.082Z,3072
2018-06-03T06:03:50.835Z,3076
2018-06-03T06:05:00.314Z,3084
2018-06-03T06:06:09.259Z,3088
2018-06-03T06:07:19.019Z,3088
2018-06-03T06:08:28.768Z,3092
2018-06-03T06:09:38.778Z,3100
2018-06-03T06:10:48.527Z,3104
2018-06-03T06:11:58.277Z,3108
2018-06-03T06:13:08.027Z,3112
2018-06-03T06:14:17.777Z,3116
2018-06-03T06:15:27.838Z,3120
2018-06-03T06:16:37.319Z,3128
2018-06-03T06:17:47.064Z,3136
2018-06-03T06:18:56.806Z,3136
2018-06-03T06:20:06.959Z,3140
2018-06-03T06:21:16.718Z,3148
2018-06-03T06:22:26.474Z,3152
2018-06-03T06:23:36.489Z,3160
2018-06-03T06:24:46.234Z,3160
2018-06-03T06:25:56.254Z,3168
2018-06-03T06:27:06.269Z,3172
2018-06-03T06:28:16.022Z,3176
2018-06-03T06:29:27.098Z,3184
2018-06-03T06:30:36.859Z,3192
2018-06-03T06:31:46.612Z,3192
2018-06-03T06:32:56.371Z,3200
2018-06-03T06:34:05.851Z,3204
2018-06-03T06:35:15.610Z,3212
2018-06-03T06:36:25.762Z,3216
2018-06-03T06:37:35.860Z,3220
2018-06-03T06:38:45.716Z,3228
2018-06-03T06:39:55.741Z,3232
2018-06-03T06:41:05.233Z,3236
2018-06-03T06:42:15.252Z,3240
2018-06-03T06:43:25.269Z,3244
2018-06-03T06:44:35.022Z,3252
2018-06-03T06:45:45.046Z,3252
2018-06-03T06:46:54.800Z,3256
2018-06-03T06:48:04.551Z,3260
2018-06-03T06:49:14.305Z,3268
2018-06-03T06:50:24.328Z,3272
2018-06-03T06:51:34.352Z,3276
2018-06-03T06:52:44.103Z,3280
2018-06-03T06:53:53.867Z,3284
2018-06-03T06:55:03.358Z,3292
2018-06-03T06:56:13.409Z,3300
2018-06-03T06:57:23.595Z,3312
2018-06-03T06:58:33.337Z,3316
2018-06-03T06:59:43.092Z,3324
2018-06-03T07:00:52.840Z,3332
2018-06-03T07:02:02.591Z,3340
2018-06-03T07:03:12.074Z,3344
2018-06-03T07:04:21.837Z,3352
2018-06-03T07:05:31.859Z,3360
2018-06-03T07:06:41.518Z,3368
2018-06-03T07:07:51.068Z,3376
2018-06-03T07:09:00.557Z,3380
2018-06-03T07:10:10.305Z,3388
2018-06-03T07:11:19.790Z,3400
2018-06-03T07:12:29.273Z,3404
2018-06-03T07:13:39.033Z,3408
2018-06-03T07:14:49.060Z,3416
2018-06-03T07:15:58.549Z,3424
2018-06-03T07:17:08.317Z,3432
2018-06-03T07:18:18.335Z,3440
2018-06-03T07:19:28.354Z,3448
2018-06-03T07:20:38.112Z,3456
2018-06-03T07:21:47.872Z,3464
2018-06-03T07:22:57.898Z,3476
2018-06-03T07:24:07.656Z,3484
2018-06-03T07:25:17.408Z,3488
2018-06-03T07:26:27.163Z,3488
2018-06-03T07:27:36.655Z,3504
2018-06-03T07:28:46.689Z,3516
2018-06-03T07:29:56.456Z,3528
2018-06-03T07:31:05.939Z,3536
2018-06-03T07:32:15.553Z,3536
2018-06-03T07:33:25.317Z,3548
2018-06-03T07:34:35.360Z,3556
2018-06-03T07:35:45.390Z,3568
2018-06-03T07:36:55.408Z,3584
2018-06-03T07:38:05.420Z,3596
2018-06-03T07:39:15.440Z,3612
2018-06-03T07:40:25.199Z,3620
2018-06-03T07:41:34.683Z,3628
2018-06-03T07:42:44.438Z,3640
2018-06-03T07:43:54.195Z,3648
2018-06-03T07:45:03.953Z,3660
2018-06-03T07:46:13.703Z,3672
2018-06-03T07:47:23.457Z,3684
2018-06-03T07:48:33.473Z,3696
2018-06-03T07:49:43.491Z,3704
2018-06-03T07:50:52.972Z,3712
2018-06-03T07:52:02.734Z,3732
2018-06-03T07:53:12.490Z,3740
2018-06-03T07:54:22.510Z,3752
2018-06-03T07:55:32.262Z,3764
2018-06-03T07:56:42.284Z,3776
2018-06-03T07:57:52.038Z,3784
2018-06-03T07:59:02.058Z,3792
2018-06-03T08:00:11.559Z,3800
2018-06-03T08:01:21.637Z,3808
2018-06-03T08:02:31.663Z,3816
2018-06-03T08:03:41.688Z,3824
2018-06-03T08:04:51.444Z,3836
2018-06-03T08:06:01.326Z,3852
2018-06-03T08:07:11.518Z,3868
2018-06-03T08:08:21.536Z,3880
2018-06-03T08:09:31.302Z,3888
2018-06-03T08:10:41.055Z,3896
2018-06-03T08:11:51.081Z,3908
2018-06-03T08:13:01.106Z,3916
2018-06-03T08:14:11.140Z,3928
2018-06-03T08:15:21.159Z,3944
2018-06-03T08:16:30.643Z,3960
2018-06-03T08:17:40.452Z,3972
2018-06-03T08:18:50.202Z,3988
2018-06-03T08:20:00.220Z,3996
2018-06-03T08:21:09.999Z,4012
2018-06-03T08:22:19.752Z,4024
2018-06-03T08:23:29.785Z,4040
2018-06-03T08:24:39.816Z,4052
2018-06-03T08:25:49.834Z,4072
2018-06-03T08:26:59.857Z,4092
2018-06-03T08:28:09.341Z,4104
2018-06-03T08:29:19.363Z,4128
2018-06-03T08:30:28.852Z,4140
2018-06-03T08:31:38.346Z,4152
2018-06-03T08:32:48.363Z,4164
2018-06-03T08:33:58.120Z,4180
2018-06-03T08:35:07.871Z,4192
2018-06-03T08:36:17.898Z,4208
2018-06-03T08:37:27.919Z,4216
2018-06-03T08:38:37.935Z,4228
2018-06-03T08:39:47.685Z,4248
2018-06-03T08:40:57.439Z,4260
2018-06-03T08:42:06.931Z,4280
2018-06-03T08:43:16.696Z,4296
2018-06-03T08:44:26.454Z,4312
2018-06-03T08:45:35.949Z,4320
2018-06-03T08:46:45.431Z,4328
2018-06-03T08:47:55.501Z,4348
2018-06-03T08:49:05.263Z,4364
2018-06-03T08:50:15.283Z,4380
2018-06-03T08:51:24.510Z,4392
2018-06-03T08:52:34.265Z,4416
2018-06-03T08:53:44.288Z,4428
2018-06-03T08:54:54.039Z,4440
2018-06-03T08:56:04.066Z,4456
2018-06-03T08:57:13.550Z,4476
2018-06-03T08:58:23.570Z,4488
2018-06-03T08:59:33.604Z,4504
2018-06-03T09:00:43.369Z,4520
2018-06-03T09:01:53.124Z,4540
2018-06-03T09:03:02.872Z,4556
2018-06-03T09:04:12.623Z,4576
2018-06-03T09:05:22.373Z,4592
2018-06-03T09:06:32.420Z,4612
2018-06-03T09:07:42.201Z,4628
2018-06-03T09:08:52.222Z,4648
2018-06-03T09:10:01.811Z,4668
2018-06-03T09:11:11.300Z,4684
2018-06-03T09:12:21.319Z,4700
2018-06-03T09:13:30.809Z,4712
2018-06-03T09:14:40.567Z,4732
2018-06-03T09:15:50.073Z,4748
2018-06-03T09:16:59.829Z,4760
2018-06-03T09:18:09.052Z,4784
2018-06-03T09:19:18.819Z,4804
2018-06-03T09:20:28.850Z,4820
2018-06-03T09:21:38.878Z,4836
2018-06-03T09:22:48.636Z,4852
2018-06-03T09:23:58.663Z,4876
2018-06-03T09:25:08.511Z,4892
2018-06-03T09:26:18.679Z,4908
2018-06-03T09:27:28.444Z,4920
2018-06-03T09:28:38.468Z,4940
2018-06-03T09:29:48.223Z,4960
2018-06-03T09:30:57.978Z,4980
2018-06-03T09:32:07.737Z,4996
2018-06-03T09:33:16.953Z,5008
2018-06-03T09:34:26.714Z,5020
2018-06-03T09:35:36.747Z,5032
2018-06-03T09:36:46.505Z,5040
2018-06-03T09:37:56.273Z,5060
2018-06-03T09:39:06.030Z,5072
2018-06-03T09:40:15.785Z,5088
2018-06-03T09:41:25.551Z,5100
2018-06-03T09:42:35.323Z,5116
2018-06-03T09:43:45.075Z,5132
2018-06-03T09:44:54.838Z,5144
2018-06-03T09:46:04.590Z,5156
2018-06-03T09:47:14.344Z,5164
2018-06-03T09:48:24.101Z,5168
2018-06-03T09:49:33.594Z,5180
2018-06-03T09:50:43.080Z,5192
2018-06-03T09:51:52.837Z,5200
2018-06-03T09:53:02.991Z,5212
2018-06-03T09:54:12.423Z,5232
2018-06-03T09:55:22.179Z,5252
2018-06-03T09:56:31.670Z,5268
2018-06-03T09:57:41.688Z,5280
2018-06-03T09:58:51.171Z,5312
2018-06-03T10:00:00.932Z,5328
2018-06-03T10:01:10.425Z,5348
2018-06-03T10:02:20.241Z,5364
2018-06-03T10:03:29.997Z,5380
2018-06-03T10:04:39.758Z,5396
2018-06-03T10:05:49.512Z,5416
2018-06-03T10:06:59.270Z,5424
2018-06-03T10:08:08.539Z,5440
2018-06-03T10:09:18.563Z,5448
2018-06-03T10:10:28.593Z,5456
2018-06-03T10:11:38.084Z,5468
2018-06-03T10:12:47.837Z,5488
2018-06-03T10:13:57.858Z,5504
2018-06-03T10:15:07.887Z,5508
2018-06-03T10:16:18.232Z,5524
2018-06-03T10:17:28.257Z,5540
2018-06-03T10:18:38.285Z,5552
2018-06-03T10:19:48.042Z,5560
2018-06-03T10:20:58.060Z,5576
2018-06-03T10:22:08.085Z,5592
2018-06-03T10:23:17.840Z,5616
2018-06-03T10:24:27.866Z,5640
2018-06-03T10:25:37.884Z,5656
2018-06-03T10:26:47.370Z,5684
2018-06-03T10:27:57.394Z,5708
2018-06-03T10:29:06.615Z,5724
2018-06-03T10:30:16.372Z,5748
2018-06-03T10:31:26.407Z,5768
2018-06-03T10:32:36.170Z,5784
2018-06-03T10:33:45.515Z,5800
2018-06-03T10:34:55.603Z,5808
2018-06-03T10:36:05.363Z,5812
2018-06-03T10:37:15.127Z,5820
2018-06-03T10:38:25.152Z,5836
2018-06-03T10:39:34.652Z,5836
2018-06-03T10:40:44.414Z,5832
2018-06-03T10:41:54.442Z,5844
2018-06-03T10:43:04.201Z,5852
2018-06-03T10:44:13.420Z,5868
2018-06-03T10:45:23.450Z,5880
2018-06-03T10:46:33.205Z,5892
2018-06-03T10:47:43.232Z,5912
2018-06-03T10:48:52.998Z,5928
2018-06-03T10:50:03.020Z,5944
2018-06-03T10:51:12.506Z,5952
2018-06-03T10:52:22.560Z,5972
2018-06-03T10:53:32.584Z,5988
2018-06-03T10:54:42.457Z,6004
2018-06-03T10:55:52.479Z,6024
2018-06-03T10:57:02.507Z,6040
2018-06-03T10:58:12.264Z,6072
2018-06-03T10:59:22.285Z,6104
2018-06-03T11:00:31.779Z,6116
2018-06-03T11:01:41.805Z,6128
2018-06-03T11:02:51.556Z,6144
2018-06-03T11:04:01.369Z,6168
2018-06-03T11:05:10.858Z,6188
2018-06-03T11:06:20.622Z,6208
2018-06-03T11:07:30.380Z,6236
2018-06-03T11:08:40.401Z,6284
2018-06-03T11:09:50.433Z,6324
2018-06-03T11:11:00.456Z,6376
2018-06-03T11:12:09.947Z,6412
2018-06-03T11:13:19.981Z,6464
2018-06-03T11:14:30.015Z,6532
2018-06-03T11:15:40.046Z,6588
2018-06-03T11:16:49.860Z,6636
2018-06-03T11:17:59.615Z,6684
2018-06-03T11:19:09.684Z,6724
2018-06-03T11:20:19.441Z,6776
2018-06-03T11:21:29.464Z,6812
2018-06-03T11:22:39.496Z,6884
2018-06-03T11:23:49.356Z,6936
2018-06-03T11:24:59.380Z,7016
2018-06-03T11:26:08.867Z,7104
2018-06-03T11:27:18.628Z,7196
2018-06-03T11:28:28.656Z,7256
2018-06-03T11:29:38.415Z,7332
2018-06-03T11:30:48.437Z,7536
2018-06-03T11:31:58.460Z,8112
2018-06-03T11:33:08.244Z,9412
2018-06-03T11:34:18.273Z,21152
2018-06-03T11:35:28.031Z,69728
2018-06-03T11:36:37.795Z,91968
2018-06-03T11:37:47.016Z,90304
2018-06-03T11:38:56.776Z,88064
2018-06-03T11:40:06.536Z,88512
2018-06-03T11:41:16.586Z,91296
2018-06-03T11:42:26.352Z,89088
2018-06-03T11:43:36.374Z,90176
2018-06-03T11:44:45.869Z,94272
2018-06-03T11:45:55.896Z,93792
2018-06-03T11:47:05.713Z,93760
2018-06-03T11:48:15.479Z,89824
2018-06-03T11:49:25.238Z,92512
2018-06-03T11:50:35.272Z,94176
2018-06-03T11:51:45.133Z,94240
2018-06-03T11:52:54.893Z,90560
2018-06-03T11:54:04.932Z,86464
2018-06-03T11:55:14.701Z,82272
2018-06-03T11:56:24.493Z,81376
2018-06-03T11:57:34.276Z,87936
2018-06-03T11:58:44.320Z,88096
2018-06-03T11:59:54.364Z,83904
2018-06-03T12:01:03.863Z,81792
2018-06-03T12:02:13.621Z,84608
2018-06-03T12:03:23.669Z,88704
2018-06-03T12:04:33.437Z,86496
2018-06-03T12:05:43.470Z,85536
2018-06-03T12:06:53.237Z,84288
2018-06-03T12:08:02.202Z,86208
2018-06-03T12:09:11.966Z,86592
2018-06-03T12:10:22.012Z,80256
2018-06-03T12:11:31.515Z,73248
2018-06-03T12:12:41.556Z,73024
2018-06-03T12:13:51.331Z,73888
2018-06-03T12:15:00.834Z,78752
2018-06-03T12:16:10.878Z,74464
2018-06-03T12:17:20.380Z,67232
2018-06-03T12:18:30.146Z,66912
2018-06-03T12:19:40.184Z,71648
2018-06-03T12:20:49.958Z,75520
2018-06-03T12:21:59.782Z,83616
2018-06-03T12:23:09.556Z,91552
2018-06-03T12:24:18.792Z,86496
2018-06-03T12:25:28.570Z,84768
2018-06-03T12:26:38.337Z,81152
2018-06-03T12:27:47.941Z,79168
2018-06-03T12:28:57.711Z,81664
2018-06-03T12:30:07.496Z,78304
2018-06-03T12:31:17.277Z,83008
2018-06-03T12:32:27.317Z,84480
2018-06-03T12:33:37.368Z,82848
2018-06-03T12:34:47.403Z,81984
2018-06-03T12:35:56.938Z,80928
2018-06-03T12:37:06.173Z,83232
2018-06-03T12:38:15.943Z,84384
2018-06-03T12:39:25.982Z,85888
2018-06-03T12:40:36.064Z,88704
2018-06-03T12:41:45.900Z,84736
2018-06-03T12:42:55.430Z,76544
2018-06-03T12:44:05.197Z,71008
2018-06-03T12:45:15.236Z,76064
2018-06-03T12:46:25.007Z,74560
2018-06-03T12:47:34.776Z,72640
2018-06-03T12:48:44.552Z,85280
2018-06-03T12:49:54.590Z,83008
2018-06-03T12:51:04.096Z,87264
2018-06-03T12:52:14.137Z,88160
2018-06-03T12:53:23.641Z,92672
2018-06-03T12:54:33.408Z,89696
2018-06-03T12:55:43.436Z,91456
2018-06-03T12:56:53.222Z,89984
2018-06-03T12:58:03.277Z,89280
2018-06-03T12:59:13.313Z,22752
2018-06-03T13:00:23.082Z,86944
2018-06-03T13:01:32.848Z,89280
2018-06-03T13:02:42.611Z,86304
2018-06-03T13:03:52.651Z,88992
2018-06-03T13:05:02.153Z,42304
2018-06-03T13:06:11.677Z,95456
2018-06-03T13:07:21.184Z,22912
2018-06-03T13:08:31.226Z,17920
2018-06-03T13:09:40.996Z,62720
2018-06-03T13:10:51.035Z,93408
2018-06-03T13:12:00.910Z,22336
2018-06-03T13:13:11.100Z,29184
2018-06-03T13:14:21.148Z,18880
2018-06-03T13:15:31.183Z,17344
2018-06-03T13:16:40.955Z,46912
2018-06-03T13:17:50.453Z,45120
2018-06-03T13:19:00.263Z,16044
2018-06-03T13:20:10.033Z,12144
2018-06-03T13:21:20.100Z,11876
2018-06-03T13:22:30.140Z,13816
2018-06-03T13:23:40.174Z,99872
2018-06-03T13:24:50.205Z,98944
2018-06-03T13:26:00.242Z,16080
2018-06-03T13:27:10.263Z,88384
2018-06-03T13:28:20.289Z,72416
2018-06-03T13:29:30.367Z,47104
2018-06-03T13:30:40.397Z,85728
2018-06-03T13:31:50.169Z,81248
2018-06-03T13:33:00.212Z,83872
2018-06-03T13:34:10.252Z,80832
2018-06-03T13:35:20.287Z,79680
2018-06-03T13:36:30.317Z,79392
2018-06-03T13:37:40.206Z,45312
2018-06-03T13:38:50.245Z,90080
2018-06-03T13:40:00.021Z,20128
2018-06-03T13:41:09.523Z,22144
2018-06-03T13:42:19.557Z,20576
2018-06-03T13:43:29.591Z,81568
2018-06-03T13:44:39.634Z,92704
2018-06-03T13:45:49.663Z,93152
2018-06-03T13:46:58.894Z,93056
2018-06-03T13:48:08.925Z,99904
2018-06-03T13:49:18.158Z,104320
2018-06-03T13:50:28.207Z,93952
2018-06-03T13:51:38.111Z,100736
2018-06-03T13:52:48.145Z,95776
2018-06-03T13:53:57.923Z,95072
2018-06-03T13:55:07.157Z,91360
2018-06-03T13:56:16.660Z,10408
2018-06-03T13:57:26.696Z,11540
2018-06-03T13:58:36.468Z,10536
2018-06-03T13:59:46.508Z,13052
2018-06-03T14:00:56.543Z,81888
2018-06-03T14:02:06.169Z,80896
2018-06-03T14:03:16.200Z,89600
2018-06-03T14:04:25.971Z,34880
2018-06-03T14:05:35.468Z,12444
2018-06-03T14:06:45.237Z,17088
2018-06-03T14:07:55.007Z,22304
2018-06-03T14:09:05.052Z,29824
2018-06-03T14:10:14.544Z,78464
2018-06-03T14:11:24.317Z,77472
2018-06-03T14:12:34.348Z,16544
2018-06-03T14:13:43.842Z,13936
2018-06-03T14:14:53.885Z,14068
2018-06-03T14:16:03.935Z,14540
2018-06-03T14:17:13.162Z,16348
2018-06-03T14:18:22.666Z,61696
2018-06-03T14:19:32.660Z,18240
2018-06-03T14:20:42.434Z,18880
2018-06-03T14:21:51.929Z,15388
2018-06-03T14:23:01.693Z,17856
2018-06-03T14:24:10.928Z,38496
2018-06-03T14:25:21.011Z,12828
2018-06-03T14:26:31.176Z,11648
2018-06-03T14:27:41.207Z,11336
2018-06-03T14:28:51.238Z,12920
2018-06-03T14:30:01.271Z,12856
2018-06-03T14:31:10.496Z,33312
2018-06-03T14:32:20.250Z,14880
2018-06-03T14:33:30.290Z,13096
2018-06-03T14:34:40.321Z,12308
2018-06-03T14:35:49.835Z,12212
2018-06-03T14:36:59.337Z,14008
2018-06-03T14:38:09.098Z,70112
2018-06-03T14:39:19.138Z,78112
2018-06-03T14:40:29.169Z,19136
2018-06-03T14:41:39.448Z,16608
2018-06-03T14:42:48.939Z,16992
2018-06-03T14:43:58.706Z,16800
2018-06-03T14:45:08.199Z,15308
2018-06-03T14:46:18.254Z,17632
2018-06-03T14:47:28.430Z,17280
2018-06-03T14:48:38.187Z,16284
2018-06-03T14:49:48.218Z,15408
2018-06-03T14:50:58.254Z,16352
2018-06-03T14:52:08.015Z,41760
2018-06-03T14:53:18.053Z,73088
2018-06-03T14:54:27.842Z,18656
2018-06-03T14:55:37.866Z,26528
2018-06-03T14:56:47.633Z,21696
2018-06-03T14:57:57.130Z,41216
2018-06-03T14:59:07.132Z,71552
2018-06-03T15:00:16.895Z,39392
2018-06-03T15:01:27.115Z,48000
2018-06-03T15:02:37.247Z,47136
2018-06-03T15:03:47.278Z,15328
2018-06-03T15:04:57.349Z,17344
2018-06-03T15:06:07.376Z,25344
2018-06-03T15:07:16.874Z,14928
2018-06-03T15:08:26.910Z,14920
2018-06-03T15:09:36.682Z,23040
2018-06-03T15:10:46.446Z,16056
2018-06-03T15:11:56.200Z,15612
2018-06-03T15:13:05.706Z,16008
2018-06-03T15:14:15.743Z,57408
2018-06-03T15:15:25.520Z,19744
2018-06-03T15:16:35.017Z,18848
2018-06-03T15:17:45.056Z,32032
2018-06-03T15:18:55.099Z,67072
2018-06-03T15:20:05.139Z,68512
2018-06-03T15:21:14.910Z,17184
2018-06-03T15:22:24.941Z,26080
2018-06-03T15:23:34.710Z,82400
2018-06-03T15:24:44.483Z,13812
2018-06-03T15:25:54.545Z,13348
2018-06-03T15:27:04.583Z,12592
2018-06-03T15:28:14.616Z,12448
2018-06-03T15:29:24.668Z,12600
2018-06-03T15:30:34.470Z,11324
2018-06-03T15:31:44.509Z,11512
2018-06-03T15:32:54.005Z,12140
2018-06-03T15:34:03.511Z,12416
2018-06-03T15:35:13.025Z,14660